This is the latest recevied weather packets stored in our database for station/object IU2PLZ-12. If no packets are shown the sender has not sent any weather packets the latest 10 day(s).
| Time | Temp. | Humidity | Pressure | Rain* | Wind** | Luminosity | Snow |
|---|---|---|---|---|---|---|---|
| 1777809743 | 27.78° C | 20% | 1000.5 hPa | - | - | - | - |
| 1777808843 | 27.78° C | 21% | 1000.5 hPa | - | - | - | - |
| 1777807943 | 27.78° C | 21% | 1000.5 hPa | - | - | - | - |
| 1777807043 | 28.89° C | 20% | 1000.6 hPa | - | - | - | - |
| 1777806142 | 28.89° C | 22% | 1000.6 hPa | - | - | - | - |
| 1777805242 | 28.33° C | 23% | 1000.6 hPa | - | - | - | - |
| 1777804342 | 27.78° C | 23% | 1000.7 hPa | - | - | - | - |
| 1777803442 | 31.11° C | 23% | 1000.8 hPa | - | - | - | - |
| 1777802596 | 31.67° C | 22% | 1000.8 hPa | - | - | - | - |
| 1777802542 | 31.67° C | 22% | 1000.8 hPa | - | - | - | - |
| 1777801641 | 31.67° C | 23% | 1001 hPa | - | - | - | - |
| 1777800741 | 32.78° C | 22% | 1001.2 hPa | - | - | - | - |
| 1777799841 | 32.22° C | 22% | 1001.2 hPa | - | - | - | - |
| 1777798941 | 32.78° C | 22% | 1001.2 hPa | - | - | - | - |
| 1777798041 | 34.44° C | 21% | 1001.3 hPa | - | - | - | - |
| 1777797140 | 33.89° C | 21% | 1001.4 hPa | - | - | - | - |
| 1777796240 | 35° C | 20% | 1001.5 hPa | - | - | - | - |
| 1777795340 | 32.22° C | 22% | 1001.5 hPa | - | - | - | - |
| 1777794440 | 33.89° C | 21% | 1001.5 hPa | - | - | - | - |
| 1777793540 | 31.67° C | 24% | 1001.4 hPa | - | - | - | - |
| 1777792639 | 29.44° C | 26% | 1001.5 hPa | - | - | - | - |
| 1777791739 | 27.22° C | 29% | 1001.5 hPa | - | - | - | - |
| 1777790839 | 21.67° C | 36% | 1001.6 hPa | - | - | - | - |
| 1777789939 | 21.11° C | 37% | 1001.5 hPa | - | - | - | - |
| 1777789038 | 20° C | 37% | 1001.5 hPa | - | - | - | - |
* Rain since midnight (hover to see other rain measurements)
** Current wind speed in m/s (hover to see current wind gust speed)